sensor_id;sensor_type;location;lat;lon;timestamp;temperature;humidity
4366;DHT22;2196;47.422;9.656;2023-02-03T00:01:49;4.60;99.90
4366;DHT22;2196;47.422;9.656;2023-02-03T00:04:16;4.60;99.90
4366;DHT22;2196;47.422;9.656;2023-02-03T00:06:44;4.60;99.90
4366;DHT22;2196;47.422;9.656;2023-02-03T00:09:11;4.60;99.90
4366;DHT22;2196;47.422;9.656;2023-02-03T00:11:39;4.70;99.90
4366;DHT22;2196;47.422;9.656;2023-02-03T00:14:06;4.60;99.90
4366;DHT22;2196;47.422;9.656;2023-02-03T00:16:33;4.70;99.90
4366;DHT22;2196;47.422;9.656;2023-02-03T00:19:00;4.70;99.90
4366;DHT22;2196;47.422;9.656;2023-02-03T00:21:28;4.70;99.90
4366;DHT22;2196;47.422;9.656;2023-02-03T00:23:54;4.60;99.90
4366;DHT22;2196;47.422;9.656;2023-02-03T00:26:21;4.60;99.90
4366;DHT22;2196;47.422;9.656;2023-02-03T00:28:51;4.50;99.90
4366;DHT22;2196;47.422;9.656;2023-02-03T00:31:20;4.40;99.90
4366;DHT22;2196;47.422;9.656;2023-02-03T00:33:52;4.40;99.90
4366;DHT22;2196;47.422;9.656;2023-02-03T00:36:19;4.50;99.90
4366;DHT22;2196;47.422;9.656;2023-02-03T00:38:46;4.50;99.90
4366;DHT22;2196;47.422;9.656;2023-02-03T00:41:14;4.40;99.90
4366;DHT22;2196;47.422;9.656;2023-02-03T00:43:41;4.40;99.90
4366;DHT22;2196;47.422;9.656;2023-02-03T00:46:09;4.30;99.90
4366;DHT22;2196;47.422;9.656;2023-02-03T00:48:36;4.30;99.90
4366;DHT22;2196;47.422;9.656;2023-02-03T00:51:04;4.30;99.90
4366;DHT22;2196;47.422;9.656;2023-02-03T00:53:31;4.30;99.90
4366;DHT22;2196;47.422;9.656;2023-02-03T00:55:58;4.20;99.90
4366;DHT22;2196;47.422;9.656;2023-02-03T00:58:25;4.10;99.90
4366;DHT22;2196;47.422;9.656;2023-02-03T01:00:53;4.20;99.90
4366;DHT22;2196;47.422;9.656;2023-02-03T01:03:21;4.20;99.90
4366;DHT22;2196;47.422;9.656;2023-02-03T01:05:48;4.20;99.90
4366;DHT22;2196;47.422;9.656;2023-02-03T01:08:15;4.10;99.90
4366;DHT22;2196;47.422;9.656;2023-02-03T01:10:42;4.10;99.90
4366;DHT22;2196;47.422;9.656;2023-02-03T01:13:09;4.10;99.90
4366;DHT22;2196;47.422;9.656;2023-02-03T01:15:36;4.10;99.90
4366;DHT22;2196;47.422;9.656;2023-02-03T01:18:03;4.10;99.90
4366;DHT22;2196;47.422;9.656;2023-02-03T01:20:31;4.10;99.90
4366;DHT22;2196;47.422;9.656;2023-02-03T01:22:58;4.10;99.90
4366;DHT22;2196;47.422;9.656;2023-02-03T01:25:25;4.10;99.90
4366;DHT22;2196;47.422;9.656;2023-02-03T01:27:52;4.10;99.90
4366;DHT22;2196;47.422;9.656;2023-02-03T01:30:19;4.20;99.90
4366;DHT22;2196;47.422;9.656;2023-02-03T01:32:46;4.20;99.90
4366;DHT22;2196;47.422;9.656;2023-02-03T01:35:13;4.30;99.90
4366;DHT22;2196;47.422;9.656;2023-02-03T01:37:41;4.20;99.90
4366;DHT22;2196;47.422;9.656;2023-02-03T01:40:09;4.30;99.90
4366;DHT22;2196;47.422;9.656;2023-02-03T01:42:36;4.30;99.90
4366;DHT22;2196;47.422;9.656;2023-02-03T01:45:04;4.30;99.90
4366;DHT22;2196;47.422;9.656;2023-02-03T01:47:42;4.30;99.90
4366;DHT22;2196;47.422;9.656;2023-02-03T01:50:14;4.30;99.90
4366;DHT22;2196;47.422;9.656;2023-02-03T01:52:44;4.30;99.90
4366;DHT22;2196;47.422;9.656;2023-02-03T01:55:18;4.30;99.90
4366;DHT22;2196;47.422;9.656;2023-02-03T01:57:48;4.30;99.90
4366;DHT22;2196;47.422;9.656;2023-02-03T02:00:18;4.30;99.90
4366;DHT22;2196;47.422;9.656;2023-02-03T02:02:48;4.40;99.90
4366;DHT22;2196;47.422;9.656;2023-02-03T02:05:21;4.30;99.90
4366;DHT22;2196;47.422;9.656;2023-02-03T02:07:50;4.30;99.90
4366;DHT22;2196;47.422;9.656;2023-02-03T02:10:17;4.30;99.90
4366;DHT22;2196;47.422;9.656;2023-02-03T02:12:44;4.20;99.90
4366;DHT22;2196;47.422;9.656;2023-02-03T02:15:12;4.30;99.90
4366;DHT22;2196;47.422;9.656;2023-02-03T02:18:02;4.30;99.90
4366;DHT22;2196;47.422;9.656;2023-02-03T02:20:49;4.20;99.90
4366;DHT22;2196;47.422;9.656;2023-02-03T02:23:40;4.20;99.90
4366;DHT22;2196;47.422;9.656;2023-02-03T02:32:40;4.30;99.90
4366;DHT22;2196;47.422;9.656;2023-02-03T02:35:17;4.30;99.90
4366;DHT22;2196;47.422;9.656;2023-02-03T02:37:49;4.30;99.90
4366;DHT22;2196;47.422;9.656;2023-02-03T02:40:22;4.40;99.90
4366;DHT22;2196;47.422;9.656;2023-02-03T02:43:00;4.40;99.90
4366;DHT22;2196;47.422;9.656;2023-02-03T02:45:30;4.40;99.90
4366;DHT22;2196;47.422;9.656;2023-02-03T02:48:04;4.40;99.90
4366;DHT22;2196;47.422;9.656;2023-02-03T02:50:39;4.30;99.90
4366;DHT22;2196;47.422;9.656;2023-02-03T02:53:08;4.30;99.90
4366;DHT22;2196;47.422;9.656;2023-02-03T02:55:37;4.30;99.90
4366;DHT22;2196;47.422;9.656;2023-02-03T02:58:07;4.40;99.90
4366;DHT22;2196;47.422;9.656;2023-02-03T03:00:36;4.30;99.90
4366;DHT22;2196;47.422;9.656;2023-02-03T03:03:13;4.40;99.90
4366;DHT22;2196;47.422;9.656;2023-02-03T03:05:43;4.40;99.90
4366;DHT22;2196;47.422;9.656;2023-02-03T03:08:13;4.40;99.90
4366;DHT22;2196;47.422;9.656;2023-02-03T03:10:42;4.40;99.90
4366;DHT22;2196;47.422;9.656;2023-02-03T03:13:12;4.40;99.90
4366;DHT22;2196;47.422;9.656;2023-02-03T03:15:40;4.40;99.90
4366;DHT22;2196;47.422;9.656;2023-02-03T03:18:13;4.40;99.90
4366;DHT22;2196;47.422;9.656;2023-02-03T03:20:42;4.40;99.90
4366;DHT22;2196;47.422;9.656;2023-02-03T03:23:13;4.40;99.90
4366;DHT22;2196;47.422;9.656;2023-02-03T03:25:45;4.40;99.90
4366;DHT22;2196;47.422;9.656;2023-02-03T03:28:19;4.40;99.90
4366;DHT22;2196;47.422;9.656;2023-02-03T03:30:49;4.50;99.90
4366;DHT22;2196;47.422;9.656;2023-02-03T03:33:17;4.50;99.90
4366;DHT22;2196;47.422;9.656;2023-02-03T03:35:48;4.50;99.90
4366;DHT22;2196;47.422;9.656;2023-02-03T03:38:20;4.40;99.90
4366;DHT22;2196;47.422;9.656;2023-02-03T03:40:51;4.30;99.90
4366;DHT22;2196;47.422;9.656;2023-02-03T03:43:23;4.30;99.90
4366;DHT22;2196;47.422;9.656;2023-02-03T03:45:53;4.30;99.90
4366;DHT22;2196;47.422;9.656;2023-02-03T03:48:27;4.20;99.90
4366;DHT22;2196;47.422;9.656;2023-02-03T03:50:59;4.20;99.90
4366;DHT22;2196;47.422;9.656;2023-02-03T03:53:30;4.30;99.90
4366;DHT22;2196;47.422;9.656;2023-02-03T03:55:59;4.30;99.90
4366;DHT22;2196;47.422;9.656;2023-02-03T03:58:29;4.30;99.90
4366;DHT22;2196;47.422;9.656;2023-02-03T04:01:00;4.30;99.90
4366;DHT22;2196;47.422;9.656;2023-02-03T04:03:32;4.30;99.90
4366;DHT22;2196;47.422;9.656;2023-02-03T04:06:01;4.30;99.90
4366;DHT22;2196;47.422;9.656;2023-02-03T04:08:28;4.30;99.90
4366;DHT22;2196;47.422;9.656;2023-02-03T04:10:55;4.30;99.90
4366;DHT22;2196;47.422;9.656;2023-02-03T04:13:22;4.30;99.90
4366;DHT22;2196;47.422;9.656;2023-02-03T04:15:49;4.30;99.90
4366;DHT22;2196;47.422;9.656;2023-02-03T04:18:16;4.50;99.90
4366;DHT22;2196;47.422;9.656;2023-02-03T04:20:44;4.40;99.90
4366;DHT22;2196;47.422;9.656;2023-02-03T04:23:11;4.30;99.90
4366;DHT22;2196;47.422;9.656;2023-02-03T04:25:38;4.30;99.90
4366;DHT22;2196;47.422;9.656;2023-02-03T04:28:05;4.30;99.90
4366;DHT22;2196;47.422;9.656;2023-02-03T04:30:32;4.30;99.90
4366;DHT22;2196;47.422;9.656;2023-02-03T04:32:59;4.30;99.90
4366;DHT22;2196;47.422;9.656;2023-02-03T04:35:26;4.30;99.90
4366;DHT22;2196;47.422;9.656;2023-02-03T04:37:54;4.30;99.90
4366;DHT22;2196;47.422;9.656;2023-02-03T04:40:21;4.30;99.90
4366;DHT22;2196;47.422;9.656;2023-02-03T04:42:48;4.30;99.90
4366;DHT22;2196;47.422;9.656;2023-02-03T04:45:15;4.30;99.90
4366;DHT22;2196;47.422;9.656;2023-02-03T04:47:42;4.30;99.90
4366;DHT22;2196;47.422;9.656;2023-02-03T04:50:09;4.40;99.90
4366;DHT22;2196;47.422;9.656;2023-02-03T04:52:36;4.30;99.90
4366;DHT22;2196;47.422;9.656;2023-02-03T04:55:06;4.40;99.90
4366;DHT22;2196;47.422;9.656;2023-02-03T04:57:33;4.40;99.90
4366;DHT22;2196;47.422;9.656;2023-02-03T05:00:00;4.40;99.90
4366;DHT22;2196;47.422;9.656;2023-02-03T05:02:30;4.30;99.90
4366;DHT22;2196;47.422;9.656;2023-02-03T05:04:57;4.40;99.90
4366;DHT22;2196;47.422;9.656;2023-02-03T05:07:24;4.40;99.90
4366;DHT22;2196;47.422;9.656;2023-02-03T05:09:51;4.40;99.90
4366;DHT22;2196;47.422;9.656;2023-02-03T05:12:19;4.40;99.90
4366;DHT22;2196;47.422;9.656;2023-02-03T05:14:46;4.40;99.90
4366;DHT22;2196;47.422;9.656;2023-02-03T05:17:13;4.40;99.90
4366;DHT22;2196;47.422;9.656;2023-02-03T05:19:40;4.50;99.90
4366;DHT22;2196;47.422;9.656;2023-02-03T05:22:07;4.50;99.90
4366;DHT22;2196;47.422;9.656;2023-02-03T05:24:34;4.30;99.90
4366;DHT22;2196;47.422;9.656;2023-02-03T05:27:01;4.40;99.90
4366;DHT22;2196;47.422;9.656;2023-02-03T05:29:29;4.30;99.90
4366;DHT22;2196;47.422;9.656;2023-02-03T05:31:56;4.30;99.90
4366;DHT22;2196;47.422;9.656;2023-02-03T05:34:23;4.30;99.90
4366;DHT22;2196;47.422;9.656;2023-02-03T05:36:50;4.40;99.90
4366;DHT22;2196;47.422;9.656;2023-02-03T05:39:17;4.40;99.90
4366;DHT22;2196;47.422;9.656;2023-02-03T05:41:44;4.30;99.90
4366;DHT22;2196;47.422;9.656;2023-02-03T05:44:19;4.30;99.90
4366;DHT22;2196;47.422;9.656;2023-02-03T05:46:48;4.20;99.90
4366;DHT22;2196;47.422;9.656;2023-02-03T05:49:15;4.10;99.90
4366;DHT22;2196;47.422;9.656;2023-02-03T05:51:44;4.10;99.90
4366;DHT22;2196;47.422;9.656;2023-02-03T05:54:11;4.00;99.90
4366;DHT22;2196;47.422;9.656;2023-02-03T05:56:38;4.00;99.90
4366;DHT22;2196;47.422;9.656;2023-02-03T05:59:06;4.00;99.90
4366;DHT22;2196;47.422;9.656;2023-02-03T06:01:34;4.10;99.90
4366;DHT22;2196;47.422;9.656;2023-02-03T06:04:02;4.00;99.90
4366;DHT22;2196;47.422;9.656;2023-02-03T06:06:30;3.90;99.90
4366;DHT22;2196;47.422;9.656;2023-02-03T06:08:59;3.90;99.90
4366;DHT22;2196;47.422;9.656;2023-02-03T06:11:26;3.80;99.90
4366;DHT22;2196;47.422;9.656;2023-02-03T06:13:54;3.70;99.90
4366;DHT22;2196;47.422;9.656;2023-02-03T06:16:23;3.60;99.90
4366;DHT22;2196;47.422;9.656;2023-02-03T06:18:50;3.60;99.90
4366;DHT22;2196;47.422;9.656;2023-02-03T06:21:20;3.50;99.90
4366;DHT22;2196;47.422;9.656;2023-02-03T06:23:48;3.50;99.90
4366;DHT22;2196;47.422;9.656;2023-02-03T06:26:15;3.40;99.90
4366;DHT22;2196;47.422;9.656;2023-02-03T06:28:42;3.30;99.90
4366;DHT22;2196;47.422;9.656;2023-02-03T06:31:09;3.30;99.90
4366;DHT22;2196;47.422;9.656;2023-02-03T06:33:36;3.30;99.90
4366;DHT22;2196;47.422;9.656;2023-02-03T06:36:03;3.30;99.90
4366;DHT22;2196;47.422;9.656;2023-02-03T06:38:31;3.30;99.90
4366;DHT22;2196;47.422;9.656;2023-02-03T06:40:58;3.50;99.90
4366;DHT22;2196;47.422;9.656;2023-02-03T06:43:25;3.50;99.90
4366;DHT22;2196;47.422;9.656;2023-02-03T06:45:52;3.50;99.90
4366;DHT22;2196;47.422;9.656;2023-02-03T06:48:19;3.50;99.90
4366;DHT22;2196;47.422;9.656;2023-02-03T06:50:46;3.50;99.90
4366;DHT22;2196;47.422;9.656;2023-02-03T06:53:13;3.60;99.90
4366;DHT22;2196;47.422;9.656;2023-02-03T06:55:42;3.60;99.90
4366;DHT22;2196;47.422;9.656;2023-02-03T06:58:09;3.70;99.90
4366;DHT22;2196;47.422;9.656;2023-02-03T07:00:36;3.70;99.90
4366;DHT22;2196;47.422;9.656;2023-02-03T07:03:03;3.70;99.90
4366;DHT22;2196;47.422;9.656;2023-02-03T07:05:30;3.80;99.90
4366;DHT22;2196;47.422;9.656;2023-02-03T07:07:57;3.90;99.90
4366;DHT22;2196;47.422;9.656;2023-02-03T07:10:24;3.90;99.90
4366;DHT22;2196;47.422;9.656;2023-02-03T07:12:52;3.90;99.90
4366;DHT22;2196;47.422;9.656;2023-02-03T07:15:19;4.00;99.90
4366;DHT22;2196;47.422;9.656;2023-02-03T07:17:47;4.00;99.90
4366;DHT22;2196;47.422;9.656;2023-02-03T07:20:20;4.00;99.90
4366;DHT22;2196;47.422;9.656;2023-02-03T07:22:51;4.10;99.90
4366;DHT22;2196;47.422;9.656;2023-02-03T07:25:18;4.10;99.90
4366;DHT22;2196;47.422;9.656;2023-02-03T07:27:45;4.10;99.90
4366;DHT22;2196;47.422;9.656;2023-02-03T07:30:14;4.20;99.90
4366;DHT22;2196;47.422;9.656;2023-02-03T07:32:45;4.30;99.90
4366;DHT22;2196;47.422;9.656;2023-02-03T07:35:12;4.30;99.90
4366;DHT22;2196;47.422;9.656;2023-02-03T07:37:40;4.40;99.90
4366;DHT22;2196;47.422;9.656;2023-02-03T07:40:08;4.50;99.90
4366;DHT22;2196;47.422;9.656;2023-02-03T07:42:37;4.60;99.90
4366;DHT22;2196;47.422;9.656;2023-02-03T07:45:04;4.60;99.90
4366;DHT22;2196;47.422;9.656;2023-02-03T07:47:32;4.60;99.90
4366;DHT22;2196;47.422;9.656;2023-02-03T07:49:59;4.60;99.90
4366;DHT22;2196;47.422;9.656;2023-02-03T07:52:26;4.60;99.90
4366;DHT22;2196;47.422;9.656;2023-02-03T07:54:53;4.70;99.90
4366;DHT22;2196;47.422;9.656;2023-02-03T07:57:20;4.70;99.90
4366;DHT22;2196;47.422;9.656;2023-02-03T07:59:51;4.60;99.90
4366;DHT22;2196;47.422;9.656;2023-02-03T08:02:18;4.50;99.90
4366;DHT22;2196;47.422;9.656;2023-02-03T08:04:46;4.50;99.90
4366;DHT22;2196;47.422;9.656;2023-02-03T08:07:13;4.50;99.90
4366;DHT22;2196;47.422;9.656;2023-02-03T08:09:40;4.60;99.90
4366;DHT22;2196;47.422;9.656;2023-02-03T08:12:07;4.60;99.90
4366;DHT22;2196;47.422;9.656;2023-02-03T08:14:34;4.70;99.90
4366;DHT22;2196;47.422;9.656;2023-02-03T08:17:01;4.70;99.90
4366;DHT22;2196;47.422;9.656;2023-02-03T08:19:28;4.60;99.90
4366;DHT22;2196;47.422;9.656;2023-02-03T08:21:57;4.70;99.90
4366;DHT22;2196;47.422;9.656;2023-02-03T08:24:24;4.70;99.90
4366;DHT22;2196;47.422;9.656;2023-02-03T08:26:51;4.80;99.90
4366;DHT22;2196;47.422;9.656;2023-02-03T08:29:19;4.80;99.90
4366;DHT22;2196;47.422;9.656;2023-02-03T08:31:46;4.80;99.90
4366;DHT22;2196;47.422;9.656;2023-02-03T08:34:13;4.80;99.90
4366;DHT22;2196;47.422;9.656;2023-02-03T08:36:40;5.00;99.90
4366;DHT22;2196;47.422;9.656;2023-02-03T08:39:10;5.10;99.90
4366;DHT22;2196;47.422;9.656;2023-02-03T08:41:37;5.10;99.90
4366;DHT22;2196;47.422;9.656;2023-02-03T08:44:04;5.20;99.90
4366;DHT22;2196;47.422;9.656;2023-02-03T08:46:31;5.20;99.90
4366;DHT22;2196;47.422;9.656;2023-02-03T08:48:59;5.20;99.90
4366;DHT22;2196;47.422;9.656;2023-02-03T08:51:27;5.20;99.90
4366;DHT22;2196;47.422;9.656;2023-02-03T08:53:54;5.30;99.90
4366;DHT22;2196;47.422;9.656;2023-02-03T08:56:23;5.40;99.90
4366;DHT22;2196;47.422;9.656;2023-02-03T08:58:52;5.60;99.90
4366;DHT22;2196;47.422;9.656;2023-02-03T09:01:19;6.00;99.90
4366;DHT22;2196;47.422;9.656;2023-02-03T09:03:46;6.40;99.90
4366;DHT22;2196;47.422;9.656;2023-02-03T09:06:13;6.80;99.90
4366;DHT22;2196;47.422;9.656;2023-02-03T09:08:41;7.20;99.90
4366;DHT22;2196;47.422;9.656;2023-02-03T09:11:08;7.40;99.90
4366;DHT22;2196;47.422;9.656;2023-02-03T09:13:37;7.30;99.90
4366;DHT22;2196;47.422;9.656;2023-02-03T09:16:05;7.60;99.90
4366;DHT22;2196;47.422;9.656;2023-02-03T09:18:32;8.10;99.90
4366;DHT22;2196;47.422;9.656;2023-02-03T09:21:00;8.50;99.90
4366;DHT22;2196;47.422;9.656;2023-02-03T09:23:27;8.60;99.90
4366;DHT22;2196;47.422;9.656;2023-02-03T09:25:54;8.40;99.90
4366;DHT22;2196;47.422;9.656;2023-02-03T09:28:21;8.50;99.90
4366;DHT22;2196;47.422;9.656;2023-02-03T09:30:53;8.60;99.90
4366;DHT22;2196;47.422;9.656;2023-02-03T09:33:22;8.50;99.90
4366;DHT22;2196;47.422;9.656;2023-02-03T09:35:52;8.70;99.90
4366;DHT22;2196;47.422;9.656;2023-02-03T09:38:20;8.90;99.90
4366;DHT22;2196;47.422;9.656;2023-02-03T09:40:51;9.40;99.90
4366;DHT22;2196;47.422;9.656;2023-02-03T09:43:33;9.60;99.90
4366;DHT22;2196;47.422;9.656;2023-02-03T09:46:06;10.00;99.90
4366;DHT22;2196;47.422;9.656;2023-02-03T09:48:37;10.40;99.90
4366;DHT22;2196;47.422;9.656;2023-02-03T09:51:08;11.00;99.90
4366;DHT22;2196;47.422;9.656;2023-02-03T09:53:44;11.30;99.90
4366;DHT22;2196;47.422;9.656;2023-02-03T09:56:22;11.50;99.90
4366;DHT22;2196;47.422;9.656;2023-02-03T09:58:51;11.90;99.90
4366;DHT22;2196;47.422;9.656;2023-02-03T10:01:21;12.20;99.90
4366;DHT22;2196;47.422;9.656;2023-02-03T10:03:53;12.50;99.90
4366;DHT22;2196;47.422;9.656;2023-02-03T10:06:29;12.70;99.90
4366;DHT22;2196;47.422;9.656;2023-02-03T10:09:14;12.50;99.90
4366;DHT22;2196;47.422;9.656;2023-02-03T10:11:58;12.40;99.90
4366;DHT22;2196;47.422;9.656;2023-02-03T10:14:48;12.20;99.90
4366;DHT22;2196;47.422;9.656;2023-02-03T10:17:25;11.90;99.90
4366;DHT22;2196;47.422;9.656;2023-02-03T10:19:59;11.90;99.90
4366;DHT22;2196;47.422;9.656;2023-02-03T10:22:33;11.80;99.90
4366;DHT22;2196;47.422;9.656;2023-02-03T10:25:06;12.10;99.90
4366;DHT22;2196;47.422;9.656;2023-02-03T10:27:37;12.20;99.90
4366;DHT22;2196;47.422;9.656;2023-02-03T10:30:14;12.10;99.90
4366;DHT22;2196;47.422;9.656;2023-02-03T10:32:45;12.00;99.90
4366;DHT22;2196;47.422;9.656;2023-02-03T10:35:13;12.00;99.90
4366;DHT22;2196;47.422;9.656;2023-02-03T10:37:42;12.20;99.90
4366;DHT22;2196;47.422;9.656;2023-02-03T10:40:12;12.00;99.90
4366;DHT22;2196;47.422;9.656;2023-02-03T10:42:41;11.90;99.90
4366;DHT22;2196;47.422;9.656;2023-02-03T10:45:36;11.90;99.90
4366;DHT22;2196;47.422;9.656;2023-02-03T10:48:06;11.80;99.90
4366;DHT22;2196;47.422;9.656;2023-02-03T10:50:38;11.50;99.90
4366;DHT22;2196;47.422;9.656;2023-02-03T10:53:30;11.30;99.90
4366;DHT22;2196;47.422;9.656;2023-02-03T10:56:03;11.20;99.90
4366;DHT22;2196;47.422;9.656;2023-02-03T10:58:33;10.90;99.90
4366;DHT22;2196;47.422;9.656;2023-02-03T11:01:09;10.50;99.90
4366;DHT22;2196;47.422;9.656;2023-02-03T11:03:41;10.20;99.90
4366;DHT22;2196;47.422;9.656;2023-02-03T11:06:10;10.20;99.90
4366;DHT22;2196;47.422;9.656;2023-02-03T11:08:39;10.40;99.90
4366;DHT22;2196;47.422;9.656;2023-02-03T11:11:08;10.40;99.90
4366;DHT22;2196;47.422;9.656;2023-02-03T11:13:35;10.20;99.90
4366;DHT22;2196;47.422;9.656;2023-02-03T11:16:04;9.90;99.90
4366;DHT22;2196;47.422;9.656;2023-02-03T11:18:57;9.70;99.90
4366;DHT22;2196;47.422;9.656;2023-02-03T11:21:28;9.60;99.90
4366;DHT22;2196;47.422;9.656;2023-02-03T11:24:01;9.40;99.90
4366;DHT22;2196;47.422;9.656;2023-02-03T11:26:32;9.30;99.90
4366;DHT22;2196;47.422;9.656;2023-02-03T11:29:02;9.30;99.90
4366;DHT22;2196;47.422;9.656;2023-02-03T11:31:32;9.20;99.90
4366;DHT22;2196;47.422;9.656;2023-02-03T11:34:04;9.10;99.90
4366;DHT22;2196;47.422;9.656;2023-02-03T11:36:33;9.20;99.90
4366;DHT22;2196;47.422;9.656;2023-02-03T11:39:33;9.20;99.90
4366;DHT22;2196;47.422;9.656;2023-02-03T11:42:01;9.30;99.90
4366;DHT22;2196;47.422;9.656;2023-02-03T11:44:29;9.30;99.90
4366;DHT22;2196;47.422;9.656;2023-02-03T11:47:00;9.30;99.90
4366;DHT22;2196;47.422;9.656;2023-02-03T11:49:57;9.30;99.90
4366;DHT22;2196;47.422;9.656;2023-02-03T11:52:41;9.30;99.90
4366;DHT22;2196;47.422;9.656;2023-02-03T11:55:19;9.30;99.90
4366;DHT22;2196;47.422;9.656;2023-02-03T11:57:54;9.30;99.90
4366;DHT22;2196;47.422;9.656;2023-02-03T12:00:32;9.20;99.90
4366;DHT22;2196;47.422;9.656;2023-02-03T12:03:32;9.10;99.90
4366;DHT22;2196;47.422;9.656;2023-02-03T12:09:12;9.00;99.90
4366;DHT22;2196;47.422;9.656;2023-02-03T12:11:58;8.90;99.90
4366;DHT22;2196;47.422;9.656;2023-02-03T12:14:40;8.90;99.90
4366;DHT22;2196;47.422;9.656;2023-02-03T12:17:34;8.90;99.90
4366;DHT22;2196;47.422;9.656;2023-02-03T12:20:26;8.90;99.90
4366;DHT22;2196;47.422;9.656;2023-02-03T12:23:06;8.80;99.90
4366;DHT22;2196;47.422;9.656;2023-02-03T12:25:47;8.90;99.90
4366;DHT22;2196;47.422;9.656;2023-02-03T12:28:31;8.80;99.90
4366;DHT22;2196;47.422;9.656;2023-02-03T12:31:08;9.00;99.90
4366;DHT22;2196;47.422;9.656;2023-02-03T12:33:40;8.90;99.90
4366;DHT22;2196;47.422;9.656;2023-02-03T12:36:12;8.80;99.90
4366;DHT22;2196;47.422;9.656;2023-02-03T12:38:45;8.90;99.90
4366;DHT22;2196;47.422;9.656;2023-02-03T12:41:19;8.90;99.90
4366;DHT22;2196;47.422;9.656;2023-02-03T12:43:49;8.90;99.90
4366;DHT22;2196;47.422;9.656;2023-02-03T12:46:20;8.90;99.90
4366;DHT22;2196;47.422;9.656;2023-02-03T12:48:53;8.90;99.90
4366;DHT22;2196;47.422;9.656;2023-02-03T12:51:29;9.00;99.90
4366;DHT22;2196;47.422;9.656;2023-02-03T12:54:03;8.90;99.90
4366;DHT22;2196;47.422;9.656;2023-02-03T12:56:37;9.00;99.90
4366;DHT22;2196;47.422;9.656;2023-02-03T12:59:10;9.10;99.90
4366;DHT22;2196;47.422;9.656;2023-02-03T13:01:46;9.10;99.90
4366;DHT22;2196;47.422;9.656;2023-02-03T13:04:19;9.10;99.90
4366;DHT22;2196;47.422;9.656;2023-02-03T13:06:56;9.10;99.90
4366;DHT22;2196;47.422;9.656;2023-02-03T13:09:30;9.10;99.90
4366;DHT22;2196;47.422;9.656;2023-02-03T13:12:04;9.10;99.90
4366;DHT22;2196;47.422;9.656;2023-02-03T13:14:36;9.10;99.90
4366;DHT22;2196;47.422;9.656;2023-02-03T13:17:10;9.30;99.90
4366;DHT22;2196;47.422;9.656;2023-02-03T13:19:43;9.30;99.90
4366;DHT22;2196;47.422;9.656;2023-02-03T13:22:12;9.40;99.90
4366;DHT22;2196;47.422;9.656;2023-02-03T13:24:44;9.50;99.90
4366;DHT22;2196;47.422;9.656;2023-02-03T13:27:32;9.50;99.90
4366;DHT22;2196;47.422;9.656;2023-02-03T13:33:25;9.70;99.90
4366;DHT22;2196;47.422;9.656;2023-02-03T13:36:03;9.60;99.90
4366;DHT22;2196;47.422;9.656;2023-02-03T13:39:07;9.60;99.90
4366;DHT22;2196;47.422;9.656;2023-02-03T13:41:43;9.70;99.90
4366;DHT22;2196;47.422;9.656;2023-02-03T13:44:14;9.50;99.90
4366;DHT22;2196;47.422;9.656;2023-02-03T13:46:46;9.40;99.90
4366;DHT22;2196;47.422;9.656;2023-02-03T13:49:20;9.50;99.90
4366;DHT22;2196;47.422;9.656;2023-02-03T13:51:49;9.70;99.90
4366;DHT22;2196;47.422;9.656;2023-02-03T13:54:22;9.80;99.90
4366;DHT22;2196;47.422;9.656;2023-02-03T13:56:58;9.70;99.90
4366;DHT22;2196;47.422;9.656;2023-02-03T13:59:39;9.70;99.90
4366;DHT22;2196;47.422;9.656;2023-02-03T14:05:41;9.60;99.90
4366;DHT22;2196;47.422;9.656;2023-02-03T14:08:45;9.50;99.90
4366;DHT22;2196;47.422;9.656;2023-02-03T14:11:38;9.50;99.90
4366;DHT22;2196;47.422;9.656;2023-02-03T14:14:41;9.50;99.90
4366;DHT22;2196;47.422;9.656;2023-02-03T14:20:40;9.70;99.90
4366;DHT22;2196;47.422;9.656;2023-02-03T14:23:12;9.70;99.90
4366;DHT22;2196;47.422;9.656;2023-02-03T14:25:42;9.70;99.90
4366;DHT22;2196;47.422;9.656;2023-02-03T14:28:12;9.70;99.90
4366;DHT22;2196;47.422;9.656;2023-02-03T14:31:06;9.60;99.90
4366;DHT22;2196;47.422;9.656;2023-02-03T14:36:48;9.60;99.90
4366;DHT22;2196;47.422;9.656;2023-02-03T14:43:05;9.30;99.90
4366;DHT22;2196;47.422;9.656;2023-02-03T14:48:36;9.20;99.90
4366;DHT22;2196;47.422;9.656;2023-02-03T14:51:14;9.10;99.90
4366;DHT22;2196;47.422;9.656;2023-02-03T14:54:05;9.10;99.90
4366;DHT22;2196;47.422;9.656;2023-02-03T14:56:42;9.00;99.90
4366;DHT22;2196;47.422;9.656;2023-02-03T14:59:35;8.80;99.90
4366;DHT22;2196;47.422;9.656;2023-02-03T15:02:18;8.80;99.90
4366;DHT22;2196;47.422;9.656;2023-02-03T15:04:47;8.80;99.90
4366;DHT22;2196;47.422;9.656;2023-02-03T15:07:37;8.80;99.90
4366;DHT22;2196;47.422;9.656;2023-02-03T15:10:12;8.70;99.90
4366;DHT22;2196;47.422;9.656;2023-02-03T15:12:44;8.70;99.90
4366;DHT22;2196;47.422;9.656;2023-02-03T15:15:22;8.60;99.90
4366;DHT22;2196;47.422;9.656;2023-02-03T15:17:49;8.60;99.90
4366;DHT22;2196;47.422;9.656;2023-02-03T15:20:35;8.60;99.90
4366;DHT22;2196;47.422;9.656;2023-02-03T15:23:17;8.60;99.90
4366;DHT22;2196;47.422;9.656;2023-02-03T15:25:45;8.60;99.90
4366;DHT22;2196;47.422;9.656;2023-02-03T15:28:19;8.60;99.90
4366;DHT22;2196;47.422;9.656;2023-02-03T15:30:51;8.50;99.90
4366;DHT22;2196;47.422;9.656;2023-02-03T15:33:20;8.40;99.90
4366;DHT22;2196;47.422;9.656;2023-02-03T15:35:52;8.40;99.90
4366;DHT22;2196;47.422;9.656;2023-02-03T15:38:23;8.40;99.90
4366;DHT22;2196;47.422;9.656;2023-02-03T15:40:53;8.40;99.90
4366;DHT22;2196;47.422;9.656;2023-02-03T15:43:25;8.30;99.90
4366;DHT22;2196;47.422;9.656;2023-02-03T15:46:00;8.40;99.90
4366;DHT22;2196;47.422;9.656;2023-02-03T15:48:31;8.40;99.90
4366;DHT22;2196;47.422;9.656;2023-02-03T15:51:07;8.30;99.90
4366;DHT22;2196;47.422;9.656;2023-02-03T15:53:44;8.30;99.90
4366;DHT22;2196;47.422;9.656;2023-02-03T15:56:21;8.30;99.90
4366;DHT22;2196;47.422;9.656;2023-02-03T15:58:49;8.30;99.90
4366;DHT22;2196;47.422;9.656;2023-02-03T16:01:19;8.20;99.90
4366;DHT22;2196;47.422;9.656;2023-02-03T16:03:49;8.20;99.90
4366;DHT22;2196;47.422;9.656;2023-02-03T16:06:23;8.10;99.90
4366;DHT22;2196;47.422;9.656;2023-02-03T16:08:53;8.20;99.90
4366;DHT22;2196;47.422;9.656;2023-02-03T16:11:29;8.20;99.90
4366;DHT22;2196;47.422;9.656;2023-02-03T16:13:58;8.10;99.90
4366;DHT22;2196;47.422;9.656;2023-02-03T16:16:28;8.20;99.90
4366;DHT22;2196;47.422;9.656;2023-02-03T16:18:57;8.30;99.90
4366;DHT22;2196;47.422;9.656;2023-02-03T16:21:35;8.30;99.90
4366;DHT22;2196;47.422;9.656;2023-02-03T16:24:04;8.20;99.90
4366;DHT22;2196;47.422;9.656;2023-02-03T16:26:32;8.10;99.90
4366;DHT22;2196;47.422;9.656;2023-02-03T16:29:12;8.00;99.90
4366;DHT22;2196;47.422;9.656;2023-02-03T16:31:58;8.00;99.90
4366;DHT22;2196;47.422;9.656;2023-02-03T16:34:43;8.00;99.90
4366;DHT22;2196;47.422;9.656;2023-02-03T16:37:30;7.90;99.90
4366;DHT22;2196;47.422;9.656;2023-02-03T16:40:18;7.80;99.90
4366;DHT22;2196;47.422;9.656;2023-02-03T16:43:03;7.70;99.90
4366;DHT22;2196;47.422;9.656;2023-02-03T16:45:54;7.70;99.90
4366;DHT22;2196;47.422;9.656;2023-02-03T16:48:39;7.70;99.90
4366;DHT22;2196;47.422;9.656;2023-02-03T16:51:24;7.70;99.90
4366;DHT22;2196;47.422;9.656;2023-02-03T16:53:53;7.80;99.90
4366;DHT22;2196;47.422;9.656;2023-02-03T16:56:20;7.80;99.90
4366;DHT22;2196;47.422;9.656;2023-02-03T16:58:47;7.80;99.90
4366;DHT22;2196;47.422;9.656;2023-02-03T17:01:14;7.80;99.90
4366;DHT22;2196;47.422;9.656;2023-02-03T17:03:41;7.70;99.90
4366;DHT22;2196;47.422;9.656;2023-02-03T17:06:11;7.80;99.90
4366;DHT22;2196;47.422;9.656;2023-02-03T17:08:40;7.90;99.90
4366;DHT22;2196;47.422;9.656;2023-02-03T17:11:11;7.80;99.90
4366;DHT22;2196;47.422;9.656;2023-02-03T17:13:40;7.90;99.90
4366;DHT22;2196;47.422;9.656;2023-02-03T17:16:09;7.80;99.90